createdAt,value
2022-11-23T00:06:24.871Z,6.18
2022-11-23T00:21:29.859Z,6.25
2022-11-23T00:36:34.825Z,6.37
2022-11-23T00:51:39.874Z,6.5
2022-11-23T01:06:44.836Z,6.56
2022-11-23T01:21:49.863Z,6.62
2022-11-23T01:36:54.839Z,6.68
2022-11-23T01:51:59.860Z,6.68
2022-11-23T02:07:04.955Z,6.87
2022-11-23T02:22:09.862Z,6.87
2022-11-23T02:37:14.877Z,6.87
2022-11-23T02:52:19.852Z,6.87
2022-11-23T03:07:24.955Z,6.93
2022-11-23T03:22:29.868Z,7
2022-11-23T03:37:34.882Z,6.62
2022-11-23T03:52:39.862Z,6.5
2022-11-23T04:07:44.928Z,6.43
2022-11-23T04:22:50.193Z,6.37
2022-11-23T04:37:54.870Z,6.37
2022-11-23T04:52:59.857Z,6.43
2022-11-23T05:08:04.875Z,6.31
2022-11-23T05:23:09.894Z,6.37
2022-11-23T05:38:14.909Z,6.37
2022-11-23T05:53:19.864Z,6.37
2022-11-23T06:08:24.904Z,6.25
2022-11-23T06:23:29.891Z,6.31
2022-11-23T06:38:34.882Z,6.31
2022-11-23T06:53:39.893Z,6.37
2022-11-23T07:08:44.925Z,6.25
2022-11-23T07:23:49.894Z,6.37
2022-11-23T07:38:54.899Z,6.12
2022-11-23T07:53:59.917Z,6.12
2022-11-23T08:09:04.908Z,6.25
2022-11-23T08:24:09.910Z,6.5
2022-11-23T08:39:14.933Z,6.81
2022-11-23T08:54:19.912Z,6.75
2022-11-23T09:09:24.953Z,6.75
2022-11-23T09:24:30.187Z,6.75
2022-11-23T09:39:34.922Z,6.81
2022-11-23T09:54:39.905Z,6.93
2022-11-23T10:09:44.942Z,7.06
2022-11-23T10:24:49.914Z,7.18
2022-11-23T10:39:54.919Z,7.25
2022-11-23T10:54:59.948Z,7.25
2022-11-23T11:10:05.013Z,7.25
2022-11-23T11:25:09.962Z,7.37
2022-11-23T11:40:15.020Z,7.43
2022-11-23T11:55:19.975Z,7.56
2022-11-23T12:10:24.930Z,7.43
2022-11-23T12:25:29.950Z,7.5
2022-11-23T12:40:34.967Z,7.81
2022-11-23T12:55:39.963Z,7.68
2022-11-23T13:10:44.978Z,7.62
2022-11-23T13:25:49.957Z,7.62
2022-11-23T13:40:54.925Z,7.56
2022-11-23T13:55:59.993Z,7.37
2022-11-23T14:11:04.959Z,7.18
2022-11-23T14:26:09.956Z,7.06
2022-11-23T14:41:14.949Z,6.93
2022-11-23T14:56:19.964Z,6.81
2022-11-23T15:11:24.970Z,6.93
2022-11-23T15:26:48.559Z,6.93
2022-11-23T15:41:32.932Z,7.06
2022-11-23T15:56:37.936Z,6.93
2022-11-23T16:11:42.956Z,7.25
2022-11-23T16:26:47.975Z,7
2022-11-23T16:41:50.941Z,6.81
2022-11-23T16:56:55.969Z,6.56
2022-11-23T17:12:00.984Z,6.31
2022-11-23T17:27:05.993Z,6.25
2022-11-23T17:42:10.956Z,6.18
2022-11-23T17:57:15.965Z,6.18
2022-11-23T18:12:19.004Z,6.06
2022-11-23T18:27:24.004Z,6
2022-11-23T18:42:28.974Z,5.93
2022-11-23T18:57:33.980Z,5.87
2022-11-23T19:12:38.993Z,6.06
2022-11-23T19:27:43.974Z,6.06
2022-11-23T19:42:49.004Z,6.12
2022-11-23T19:57:53.990Z,6.31
2022-11-23T20:12:58.993Z,6.37
2022-11-23T20:43:09.009Z,6.25
2022-11-23T20:58:13.994Z,6.31
2022-11-23T21:13:19.013Z,6.18
2022-11-23T21:28:24.076Z,6.18
2022-11-23T21:43:29.015Z,6.37
2022-11-23T21:58:34.016Z,6.31
2022-11-23T22:13:39.019Z,6.37
2022-11-23T22:28:43.990Z,6.37
2022-11-23T22:43:49.003Z,6.5
2022-11-23T22:58:54.014Z,6.56
2022-11-23T23:13:59.050Z,6.81
2022-11-23T23:29:04.005Z,7.06
2022-11-23T23:44:07.038Z,7.18
2022-11-23T23:59:12.084Z,7.18
